Aigen Im Ennstal, Austria

10:57 PM CET on February 06, 2016 (GMT +0100)
Trautenfels | | Change Station
CLOSE
Current Station
Personal Weather Station
Location: Unterburg, STEIERMARK
Elevation: 2211 ft
Nearby Weather Stations

Elev 2211 ft 47.53 °N, 14.07 °E | Updated 33 seconds ago

Clear
Clear
27.9 °F
Feels Like 28 °F
N
0.0
Wind Variable Wind from SW
Gusts 0.0 mph

Today
High -- | Low -- °F
--% Chance of Precip.
Yesterday
High -- | Low -- °F
Precip. -- in
Pressure 29.92 in
Visibility -9999.0 miles
Clouds
Windchill 28 °F
Dew Point 23 °F
Humidity 83%
Rainfall 0.00 in
Snow Depth Not available.
7:24 AM 5:11 PM
Waning Crescent, 4% visible
METAR LOWL 062150Z 09003KT 050V140 CAVOK 03/02 Q1013 NOSIG
Pressure 29.92 in
Visibility -9999.0 miles
Clouds
Windchill 28 °F
Dew Point 23 °F
Humidity 83%
Rainfall 0.00 in
Snow Depth Not available.
7:24 AM 5:11 PM
Waning Crescent, 4% visible
METAR LOWL 062150Z 09003KT 050V140 CAVOK 03/02 Q1013 NOSIG

10-Day Weather Forecast

Almanac

Astronomy

Feb. 06, 2016 Rise Set
Actual Time
Civil Twilight
Nautical Twilight
Astronomical Twilight
Moon
Length of Visible Light
Length of Day
Tomorrow will be .
, % of the Moon is Illuminated

Today's Extremes

Country Highs Country Lows

Community

WunderPhotos

Upload Photos

1,891,051 photos uploaded!

WunderBlog® & News

Nearby

Air Quality

  Air Quality AQ Index Pollutant
Not available.

Snow Depth

Station Depth Elevation

Earthquake Activity

City Distance Mag. Time & Date
Minimum magnitude displayed is 2.5.

Coastal Water Temperatures

Place Temperature

Stations

Nearby Weather Stations

Station Location Temp. Windchill Dew Point Humidity Wind Precip. Elev Updated Type